createdAt,value
2022-10-28T00:00:37.484Z,15.62
2022-10-28T00:01:37.512Z,15.61
2022-10-28T00:02:37.403Z,15.55
2022-10-28T00:03:37.334Z,15.58
2022-10-28T00:04:37.282Z,15.59
2022-10-28T00:05:37.254Z,15.58
2022-10-28T00:06:37.179Z,15.62
2022-10-28T00:07:37.123Z,15.61
2022-10-28T00:08:37.076Z,15.62
2022-10-28T00:09:37.021Z,15.61
2022-10-28T00:10:36.973Z,15.61
2022-10-28T00:11:36.938Z,15.61
2022-10-28T00:12:36.868Z,15.49
2022-10-28T00:13:36.816Z,15.52
2022-10-28T00:14:37.497Z,15.47
2022-10-28T00:15:36.717Z,15.47
2022-10-28T00:16:36.687Z,15.58
2022-10-28T00:17:36.613Z,15.49
2022-10-28T00:18:36.563Z,15.58
2022-10-28T00:19:36.507Z,15.52
2022-10-28T00:20:36.457Z,15.54
2022-10-28T00:21:36.448Z,15.57
2022-10-28T00:22:36.379Z,15.46
2022-10-28T00:23:36.300Z,15.51
2022-10-28T00:24:36.251Z,15.49
2022-10-28T00:25:36.204Z,15.47
2022-10-28T00:26:36.149Z,15.52
2022-10-28T00:27:36.098Z,15.55
2022-10-28T00:28:36.071Z,15.55
2022-10-28T00:29:35.992Z,15.55
2022-10-28T00:30:35.948Z,15.62
2022-10-28T00:31:35.895Z,15.59
2022-10-28T00:32:35.841Z,15.62
2022-10-28T00:33:35.785Z,15.55
2022-10-28T00:34:35.757Z,15.57
2022-10-28T00:35:35.683Z,15.58
2022-10-28T00:36:35.637Z,15.49
2022-10-28T00:37:35.585Z,15.52
2022-10-28T00:38:35.530Z,15.59
2022-10-28T00:39:35.515Z,15.58
2022-10-28T00:40:35.428Z,15.58
2022-10-28T00:41:35.374Z,15.62
2022-10-28T00:42:35.323Z,15.57
2022-10-28T00:43:35.272Z,15.47
2022-10-28T00:44:35.224Z,15.49
2022-10-28T00:45:35.186Z,15.61
2022-10-28T00:46:35.117Z,15.52
2022-10-28T00:47:35.066Z,15.54
2022-10-28T00:48:35.018Z,15.46
2022-10-28T00:49:34.962Z,15.49
2022-10-28T00:50:34.931Z,15.57
2022-10-28T00:51:34.860Z,15.61
2022-10-28T00:52:34.808Z,15.65
2022-10-28T00:53:34.754Z,15.72
2022-10-28T00:54:34.707Z,15.76
2022-10-28T00:55:34.671Z,15.80
2022-10-28T00:56:34.602Z,15.80
2022-10-28T00:57:34.551Z,15.73
2022-10-28T00:58:34.502Z,15.73
2022-10-28T00:59:34.449Z,15.75
2022-10-28T01:00:34.421Z,15.64
2022-10-28T01:01:34.495Z,15.58
2022-10-28T01:02:34.340Z,15.62
2022-10-28T01:03:34.244Z,15.54
2022-10-28T01:04:34.190Z,15.44
2022-10-28T01:05:34.165Z,15.46
2022-10-28T01:06:34.090Z,15.39
2022-10-28T01:07:34.036Z,15.36
2022-10-28T01:08:33.986Z,15.39
2022-10-28T01:09:33.942Z,15.39
2022-10-28T01:10:33.883Z,15.36
2022-10-28T01:11:33.863Z,15.22
2022-10-28T01:12:33.779Z,15.24
2022-10-28T01:13:33.729Z,15.25
2022-10-28T01:14:33.677Z,15.21
2022-10-28T01:15:33.623Z,15.25
2022-10-28T01:16:33.574Z,15.28
2022-10-28T01:17:33.546Z,15.18
2022-10-28T01:18:33.475Z,15.24
2022-10-28T01:19:33.418Z,15.14
2022-10-28T01:20:36.191Z,15.22
2022-10-28T01:21:33.319Z,15.22
2022-10-28T01:22:33.368Z,15.25
2022-10-28T01:23:33.238Z,15.27
2022-10-28T01:24:33.162Z,15.21
2022-10-28T01:25:33.110Z,15.25
2022-10-28T01:26:33.057Z,15.27
2022-10-28T01:27:33.008Z,15.25
2022-10-28T01:28:32.956Z,15.18
2022-10-28T01:29:32.928Z,15.25
2022-10-28T01:30:32.855Z,15.21
2022-10-28T01:31:32.807Z,15.04
2022-10-28T01:32:32.752Z,15.04
2022-10-28T01:33:32.697Z,15.00
2022-10-28T01:34:32.646Z,14.96
2022-10-28T01:35:32.637Z,15.03
2022-10-28T01:36:32.540Z,15.03
2022-10-28T01:37:32.489Z,15.02
2022-10-28T01:38:32.437Z,15.02
2022-10-28T01:39:32.386Z,15.15
2022-10-28T01:40:32.357Z,15.07
2022-10-28T01:41:32.286Z,15.17
2022-10-28T01:42:32.234Z,15.03
2022-10-28T01:43:32.180Z,15.09
2022-10-28T01:44:32.130Z,15.06
2022-10-28T01:45:32.077Z,14.99
2022-10-28T01:46:32.044Z,15.07
2022-10-28T01:47:31.970Z,14.97
2022-10-28T01:48:32.002Z,15.02
2022-10-28T01:49:31.874Z,15.10
2022-10-28T01:50:31.816Z,15.04
2022-10-28T01:51:31.789Z,15.03
2022-10-28T01:52:31.715Z,15.06
2022-10-28T01:53:31.661Z,15.00
2022-10-28T01:54:31.620Z,15.04
2022-10-28T01:55:31.559Z,14.97
2022-10-28T01:56:31.508Z,14.88
2022-10-28T01:57:31.474Z,14.81
2022-10-28T01:58:31.402Z,14.88
2022-10-28T01:59:31.352Z,14.73
2022-10-28T02:00:31.370Z,14.89
2022-10-28T02:01:31.425Z,14.88
2022-10-28T02:02:31.214Z,14.85
2022-10-28T02:03:31.145Z,14.88
2022-10-28T02:04:31.095Z,14.94
2022-10-28T02:05:31.042Z,14.97
2022-10-28T02:06:30.990Z,15.03
2022-10-28T02:07:30.965Z,15.03
2022-10-28T02:08:30.883Z,15.00
2022-10-28T02:09:30.834Z,15.07
2022-10-28T02:10:30.782Z,15.10
2022-10-28T02:11:30.731Z,15.10
2022-10-28T02:12:30.677Z,15.06
2022-10-28T02:13:30.651Z,15.04
2022-10-28T02:14:30.575Z,15.04
2022-10-28T02:15:30.523Z,15.04
2022-10-28T02:16:30.475Z,15.04
2022-10-28T02:17:30.419Z,15.04
2022-10-28T02:18:30.370Z,14.94
2022-10-28T02:19:30.340Z,15.04
2022-10-28T02:20:30.264Z,14.97
2022-10-28T02:21:30.212Z,15.06
2022-10-28T02:22:30.162Z,14.97
2022-10-28T02:23:30.105Z,14.97
2022-10-28T02:24:30.056Z,14.99
2022-10-28T02:25:30.023Z,14.97
2022-10-28T02:26:29.954Z,14.97
2022-10-28T02:27:29.902Z,14.92
2022-10-28T02:28:29.851Z,14.88
2022-10-28T02:29:29.801Z,14.88
2022-10-28T02:30:29.769Z,14.84
2022-10-28T02:31:29.694Z,14.78
2022-10-28T02:32:29.648Z,14.73
2022-10-28T02:33:29.589Z,14.69
2022-10-28T02:34:29.548Z,14.40
2022-10-28T02:35:29.491Z,14.47
2022-10-28T02:36:29.466Z,14.50
2022-10-28T02:37:29.384Z,14.37
2022-10-28T02:38:29.333Z,14.37
2022-10-28T02:39:29.289Z,14.29
2022-10-28T02:40:29.239Z,14.33
2022-10-28T02:41:29.196Z,14.36
2022-10-28T02:42:29.120Z,14.47
2022-10-28T02:43:29.072Z,14.53
2022-10-28T02:44:29.024Z,14.58
2022-10-28T02:45:28.969Z,14.62
2022-10-28T02:46:28.938Z,14.62
2022-10-28T02:47:28.861Z,14.72
2022-10-28T02:48:28.811Z,14.66
2022-10-28T02:49:28.757Z,14.73
2022-10-28T02:50:28.706Z,14.85
2022-10-28T02:51:28.653Z,14.70
2022-10-28T02:52:28.628Z,14.77
2022-10-28T02:53:28.552Z,14.79
2022-10-28T02:54:28.498Z,14.70
2022-10-28T02:55:28.446Z,14.78
2022-10-28T02:56:28.395Z,14.65
2022-10-28T02:57:28.343Z,14.69
2022-10-28T02:58:28.320Z,14.70
2022-10-28T02:59:28.234Z,14.65
2022-10-28T03:00:28.186Z,14.58
2022-10-28T03:01:28.263Z,14.58
2022-10-28T03:02:28.082Z,14.62
2022-10-28T03:03:28.040Z,14.63
2022-10-28T03:04:27.995Z,14.68
2022-10-28T03:05:27.927Z,14.68
2022-10-28T03:06:27.876Z,14.68
2022-10-28T03:07:27.821Z,14.81
2022-10-28T03:08:27.768Z,14.81
2022-10-28T03:09:27.750Z,14.84
2022-10-28T03:10:27.665Z,14.92
2022-10-28T03:11:27.613Z,14.82
2022-10-28T03:12:27.561Z,14.86
2022-10-28T03:13:27.509Z,14.89
2022-10-28T03:14:27.463Z,14.97
2022-10-28T03:15:27.437Z,15.03
2022-10-28T03:16:27.353Z,15.06
2022-10-28T03:17:27.302Z,15.04
2022-10-28T03:18:27.251Z,15.10
2022-10-28T03:19:27.198Z,15.14
2022-10-28T03:20:27.145Z,15.14
2022-10-28T03:21:27.111Z,15.17
2022-10-28T03:22:27.041Z,15.14
2022-10-28T03:23:26.986Z,15.10
2022-10-28T03:24:26.946Z,15.11
2022-10-28T03:25:26.884Z,15.17
2022-10-28T03:26:26.851Z,15.17
2022-10-28T03:27:26.779Z,15.14
2022-10-28T03:28:26.758Z,15.15
2022-10-28T03:29:26.677Z,15.14
2022-10-28T03:30:26.626Z,15.14
2022-10-28T03:31:26.587Z,15.07
2022-10-28T03:32:26.525Z,15.18
2022-10-28T03:33:26.470Z,15.18
2022-10-28T03:34:26.417Z,15.24
2022-10-28T03:35:26.381Z,15.17
2022-10-28T03:36:26.312Z,15.24
2022-10-28T03:37:26.260Z,15.25
2022-10-28T03:38:26.222Z,15.21
2022-10-28T03:39:26.157Z,15.21
2022-10-28T03:40:35.608Z,15.28
2022-10-28T03:41:26.105Z,15.22
2022-10-28T03:42:26.034Z,15.31
2022-10-28T03:43:25.982Z,15.19
2022-10-28T03:44:25.929Z,15.24
2022-10-28T03:45:25.935Z,15.21
2022-10-28T03:46:25.857Z,15.27
2022-10-28T03:47:25.777Z,15.21
2022-10-28T03:48:25.724Z,15.29
2022-10-28T03:49:25.668Z,15.24
2022-10-28T03:50:25.618Z,15.37
2022-10-28T03:51:25.560Z,15.42
2022-10-28T03:52:25.512Z,15.43
2022-10-28T03:53:29.015Z,15.42
2022-10-28T03:54:25.406Z,15.40
2022-10-28T03:55:25.336Z,15.37
2022-10-28T03:56:25.321Z,15.44
2022-10-28T03:57:25.264Z,15.47
2022-10-28T03:58:25.197Z,15.37
2022-10-28T03:59:26.613Z,15.33
2022-10-28T04:00:25.125Z,15.39
2022-10-28T04:01:25.160Z,15.31
2022-10-28T04:02:25.063Z,15.27
2022-10-28T04:03:24.961Z,15.29
2022-10-28T04:04:28.429Z,15.21
2022-10-28T04:05:24.842Z,15.22
2022-10-28T04:06:24.770Z,15.24
2022-10-28T04:07:24.758Z,15.31
2022-10-28T04:08:24.675Z,15.21
2022-10-28T04:09:24.629Z,15.22
2022-10-28T04:10:24.564Z,15.22
2022-10-28T04:11:24.550Z,15.21
2022-10-28T04:12:24.493Z,15.29
2022-10-28T04:13:24.430Z,15.24
2022-10-28T04:14:24.399Z,15.27
2022-10-28T04:15:24.318Z,15.18
2022-10-28T04:16:24.274Z,15.25
2022-10-28T04:17:24.238Z,15.36
2022-10-28T04:18:24.151Z,15.37
2022-10-28T04:19:24.106Z,15.39
2022-10-28T04:20:24.098Z,15.52
2022-10-28T04:21:24.042Z,15.47
2022-10-28T04:22:23.981Z,15.59
2022-10-28T04:23:23.941Z,15.54
2022-10-28T04:24:23.873Z,15.52
2022-10-28T04:25:23.817Z,15.49
2022-10-28T04:26:23.766Z,15.54
2022-10-28T04:27:23.841Z,15.55
2022-10-28T04:28:23.716Z,15.57
2022-10-28T04:29:23.646Z,15.59
2022-10-28T04:30:23.717Z,15.52
2022-10-28T04:31:25.520Z,15.52
2022-10-28T04:32:23.537Z,15.58
2022-10-28T04:33:23.508Z,15.47
2022-10-28T04:34:24.777Z,15.49
2022-10-28T04:35:25.045Z,15.40
2022-10-28T04:36:24.628Z,15.37
2022-10-28T04:37:24.123Z,15.39
2022-10-28T04:38:29.122Z,15.39
2022-10-28T04:39:23.419Z,15.42
2022-10-28T04:40:23.378Z,15.44
2022-10-28T04:41:23.119Z,15.55
2022-10-28T04:42:23.349Z,15.47
2022-10-28T04:43:23.057Z,15.58
2022-10-28T04:44:22.890Z,15.64
2022-10-28T04:45:22.881Z,15.59
2022-10-28T04:46:22.973Z,15.55
2022-10-28T04:47:22.981Z,15.62
2022-10-28T04:48:23.238Z,15.61
2022-10-28T04:49:22.727Z,15.55
2022-10-28T04:50:23.103Z,15.67
2022-10-28T04:51:22.454Z,15.61
2022-10-28T04:52:22.407Z,15.61
2022-10-28T04:53:22.375Z,15.58
2022-10-28T04:54:22.332Z,15.59
2022-10-28T04:55:22.267Z,15.49
2022-10-28T04:56:22.223Z,15.40
2022-10-28T04:57:22.171Z,15.36
2022-10-28T04:58:22.139Z,15.46
2022-10-28T04:59:22.058Z,15.39
2022-10-28T05:00:21.986Z,15.43
2022-10-28T05:01:22.034Z,15.44
2022-10-28T05:02:22.200Z,15.35
2022-10-28T05:03:21.872Z,15.44
2022-10-28T05:04:21.856Z,15.36
2022-10-28T05:05:21.740Z,15.42
2022-10-28T05:06:21.682Z,15.43
2022-10-28T05:07:23.553Z,15.49
2022-10-28T05:08:21.581Z,15.54
2022-10-28T05:09:21.556Z,15.51
2022-10-28T05:10:21.472Z,15.62
2022-10-28T05:11:21.460Z,15.59
2022-10-28T05:12:21.359Z,15.62
2022-10-28T05:13:21.358Z,15.59
2022-10-28T05:14:21.457Z,15.62
2022-10-28T05:15:21.217Z,15.75
2022-10-28T05:16:21.155Z,15.80
2022-10-28T05:17:21.121Z,15.79
2022-10-28T05:18:21.062Z,15.83
2022-10-28T05:19:21.034Z,15.80
2022-10-28T05:20:20.936Z,15.86
2022-10-28T05:21:20.891Z,15.80
2022-10-28T05:22:20.857Z,15.73
2022-10-28T05:23:20.826Z,15.77
2022-10-28T05:24:20.820Z,15.70
2022-10-28T05:25:20.699Z,15.70
2022-10-28T05:26:20.627Z,15.61
2022-10-28T05:27:20.678Z,15.61
2022-10-28T05:28:20.558Z,15.57
2022-10-28T05:29:20.485Z,15.47
2022-10-28T05:30:20.435Z,15.55
2022-10-28T05:31:20.435Z,15.51
2022-10-28T05:32:20.333Z,15.58
2022-10-28T05:33:20.262Z,15.52
2022-10-28T05:34:20.236Z,15.62
2022-10-28T05:35:20.178Z,15.67
2022-10-28T05:36:20.157Z,15.59
2022-10-28T05:37:20.111Z,15.62
2022-10-28T05:38:20.016Z,15.72
2022-10-28T05:39:19.999Z,15.68
2022-10-28T05:40:19.951Z,15.62
2022-10-28T05:41:20.735Z,15.75
2022-10-28T05:42:19.918Z,15.57
2022-10-28T05:43:19.784Z,15.52
2022-10-28T05:44:19.699Z,15.57
2022-10-28T05:45:19.776Z,15.57
2022-10-28T05:46:19.610Z,15.46
2022-10-28T05:47:19.584Z,15.54
2022-10-28T05:48:19.537Z,15.52
2022-10-28T05:49:19.456Z,15.62
2022-10-28T05:50:19.390Z,15.67
2022-10-28T05:51:19.341Z,15.61
2022-10-28T05:52:19.297Z,15.62
2022-10-28T05:53:19.247Z,15.67
2022-10-28T05:54:19.199Z,15.65
2022-10-28T05:55:19.167Z,15.77
2022-10-28T05:56:19.197Z,15.76
2022-10-28T05:57:19.058Z,15.77
2022-10-28T05:58:18.998Z,15.83
2022-10-28T05:59:18.940Z,15.83
2022-10-28T06:00:18.887Z,15.90
2022-10-28T06:01:18.882Z,15.92
2022-10-28T06:02:18.837Z,15.95
2022-10-28T06:03:18.751Z,15.97
2022-10-28T06:04:18.776Z,16.00
2022-10-28T06:05:18.623Z,16.12
2022-10-28T06:06:18.568Z,16.28
2022-10-28T06:07:18.551Z,16.28
2022-10-28T06:08:18.490Z,16.36
2022-10-28T06:09:18.434Z,16.41
2022-10-28T06:10:18.377Z,16.54
2022-10-28T06:11:16.833Z,16.57
2022-10-28T06:12:16.776Z,16.58
2022-10-28T06:13:16.672Z,16.61
2022-10-28T06:14:16.643Z,16.66
2022-10-28T06:15:16.572Z,16.72
2022-10-28T06:16:16.547Z,16.91
2022-10-28T06:17:16.505Z,16.87
2022-10-28T06:18:18.858Z,16.89
2022-10-28T06:19:16.384Z,16.89
2022-10-28T06:20:16.346Z,16.86
2022-10-28T06:21:16.305Z,16.78
2022-10-28T06:22:16.288Z,16.75
2022-10-28T06:23:16.196Z,16.68
2022-10-28T06:24:16.117Z,16.65
2022-10-28T06:25:16.085Z,16.64
2022-10-28T06:26:16.028Z,16.60
2022-10-28T06:27:16.051Z,16.54
2022-10-28T06:28:15.959Z,16.57
2022-10-28T06:29:15.886Z,16.61
2022-10-28T06:30:15.846Z,16.58
2022-10-28T06:31:15.812Z,16.51
2022-10-28T06:32:15.748Z,16.46
2022-10-28T06:33:15.710Z,16.38
2022-10-28T06:34:15.660Z,16.38
2022-10-28T06:35:15.619Z,16.39
2022-10-28T06:36:15.540Z,16.31
2022-10-28T06:37:15.492Z,16.32
2022-10-28T06:38:15.450Z,16.15
2022-10-28T06:39:15.491Z,16.26
2022-10-28T06:40:15.334Z,16.20
2022-10-28T06:41:15.311Z,16.26
2022-10-28T06:42:15.252Z,16.17
2022-10-28T06:43:15.168Z,16.26
2022-10-28T06:44:15.178Z,16.15
2022-10-28T06:45:15.085Z,16.15
2022-10-28T06:46:15.033Z,16.15
2022-10-28T06:47:16.502Z,16.12
2022-10-28T06:48:16.436Z,16.15
2022-10-28T06:49:16.432Z,16.10
2022-10-28T06:50:16.329Z,16.05
2022-10-28T06:51:16.303Z,16.04
2022-10-28T06:52:16.248Z,16.02
2022-10-28T06:53:16.225Z,16.00
2022-10-28T06:54:16.184Z,15.97
2022-10-28T06:55:16.092Z,16.16
2022-10-28T06:56:16.042Z,16.13
2022-10-28T06:57:16.007Z,16.17
2022-10-28T06:58:15.971Z,16.16
2022-10-28T06:59:15.918Z,16.20
2022-10-28T07:00:15.904Z,16.29
2022-10-28T07:01:15.850Z,16.31
2022-10-28T07:02:15.882Z,16.35
2022-10-28T07:03:15.711Z,16.46
2022-10-28T07:04:15.622Z,16.46
2022-10-28T07:05:15.590Z,16.58
2022-10-28T07:06:15.733Z,16.54
2022-10-28T07:07:15.517Z,16.66
2022-10-28T07:08:15.447Z,16.79
2022-10-28T07:09:15.395Z,16.87
2022-10-28T07:10:15.412Z,16.86
2022-10-28T07:11:15.286Z,16.93
2022-10-28T07:12:15.292Z,16.93
2022-10-28T07:13:15.182Z,16.94
2022-10-28T07:14:15.140Z,16.93
2022-10-28T07:15:15.083Z,16.99
2022-10-28T07:16:15.035Z,16.87
2022-10-28T07:17:15.014Z,16.99
2022-10-28T07:18:14.933Z,17.49
2022-10-28T07:19:17.923Z,17.44
2022-10-28T07:20:14.834Z,17.56
2022-10-28T07:21:14.793Z,17.42
2022-10-28T07:22:14.758Z,17.15
2022-10-28T07:23:14.752Z,17.22
2022-10-28T07:24:14.662Z,17.29
2022-10-28T07:25:14.593Z,17.41
2022-10-28T07:26:14.542Z,17.41
2022-10-28T07:27:14.492Z,17.36
2022-10-28T07:28:14.439Z,17.45
2022-10-28T07:29:14.404Z,17.34
2022-10-28T07:30:14.343Z,17.29
2022-10-28T07:31:14.335Z,17.15
2022-10-28T07:32:14.250Z,17.11
2022-10-28T07:33:14.226Z,17.19
2022-10-28T07:34:14.123Z,17.20
2022-10-28T07:35:14.095Z,17.39
2022-10-28T07:36:14.039Z,17.97
2022-10-28T07:37:14.023Z,18.43
2022-10-28T07:38:13.958Z,18.73
2022-10-28T07:39:13.921Z,18.92
2022-10-28T07:40:13.831Z,18.43
2022-10-28T07:41:13.806Z,17.97
2022-10-28T07:42:13.792Z,17.65
2022-10-28T07:43:13.705Z,17.52
2022-10-28T07:44:13.679Z,17.31
2022-10-28T07:45:13.601Z,17.29
2022-10-28T07:46:13.580Z,17.29
2022-10-28T07:47:13.537Z,17.39
2022-10-28T07:48:13.470Z,17.42
2022-10-28T07:49:13.450Z,17.31
2022-10-28T07:50:13.398Z,17.42
2022-10-28T07:51:13.321Z,17.45
2022-10-28T07:52:13.293Z,17.78
2022-10-28T07:53:13.250Z,18.45
2022-10-28T07:54:13.188Z,19.02
2022-10-28T07:55:13.133Z,19.52
2022-10-28T07:56:13.200Z,19.73
2022-10-28T07:57:13.056Z,19.79
2022-10-28T07:58:12.982Z,20.03
2022-10-28T07:59:12.956Z,20.28
2022-10-28T08:00:12.898Z,20.39
2022-10-28T08:01:12.977Z,20.44
2022-10-28T08:02:12.853Z,20.32
2022-10-28T08:03:12.752Z,20.52
2022-10-28T08:04:12.713Z,21.02
2022-10-28T08:05:12.672Z,21.07
2022-10-28T08:06:12.651Z,21.18
2022-10-28T08:07:12.565Z,21.24
2022-10-28T08:08:12.516Z,20.96
2022-10-28T08:09:12.486Z,20.90
2022-10-28T08:10:12.473Z,20.95
2022-10-28T08:11:12.519Z,21.02
2022-10-28T08:12:12.345Z,21.30
2022-10-28T08:13:12.297Z,21.29
2022-10-28T08:14:12.255Z,21.61
2022-10-28T08:15:12.199Z,21.69
2022-10-28T08:16:12.183Z,22.02
2022-10-28T08:17:12.150Z,22.18
2022-10-28T08:18:12.080Z,22.35
2022-10-28T08:19:12.033Z,22.51
2022-10-28T08:20:12.005Z,22.54
2022-10-28T08:21:11.947Z,22.69
2022-10-28T08:22:11.940Z,22.60
2022-10-28T08:23:11.859Z,22.69
2022-10-28T08:24:11.842Z,22.78
2022-10-28T08:25:11.787Z,23.20
2022-10-28T08:26:11.745Z,23.12
2022-10-28T08:27:11.707Z,22.66
2022-10-28T08:28:11.690Z,22.63
2022-10-28T08:29:11.617Z,22.75
2022-10-28T08:30:11.576Z,22.62
2022-10-28T08:31:11.550Z,22.76
2022-10-28T08:32:11.505Z,22.41
2022-10-28T08:33:11.514Z,22.36
2022-10-28T08:34:11.525Z,22.11
2022-10-28T08:35:11.374Z,22.10
2022-10-28T08:36:11.320Z,21.98
2022-10-28T08:37:11.416Z,22.04
2022-10-28T08:38:11.257Z,22.23
2022-10-28T08:39:11.242Z,22.29
2022-10-28T08:40:11.173Z,22.39
2022-10-28T08:41:11.136Z,22.87
2022-10-28T08:42:11.098Z,23.32
2022-10-28T08:43:11.056Z,23.17
2022-10-28T08:44:11.051Z,23.23
2022-10-28T08:45:15.459Z,23.55
2022-10-28T08:46:10.943Z,23.41
2022-10-28T08:47:10.908Z,22.98
2022-10-28T08:48:10.857Z,22.90
2022-10-28T08:49:10.817Z,23.47
2022-10-28T08:50:10.806Z,24.01
2022-10-28T08:51:10.713Z,24.05
2022-10-28T08:52:10.697Z,23.87
2022-10-28T08:53:10.655Z,23.95
2022-10-28T08:54:10.593Z,23.77
2022-10-28T08:55:10.660Z,23.59
2022-10-28T08:56:10.540Z,23.12
2022-10-28T08:57:12.579Z,23.08
2022-10-28T08:58:10.431Z,23.00
2022-10-28T08:59:10.401Z,23.00
2022-10-28T09:00:10.415Z,22.96
2022-10-28T09:01:10.429Z,22.96
2022-10-28T09:02:10.283Z,23.05
2022-10-28T09:03:10.255Z,23.08
2022-10-28T09:04:10.279Z,23.12
2022-10-28T09:05:10.184Z,23.23
2022-10-28T09:06:10.128Z,23.43
2022-10-28T09:07:10.086Z,23.62
2022-10-28T09:08:10.042Z,23.32
2022-10-28T09:09:10.001Z,23.12
2022-10-28T09:10:10.031Z,22.73
2022-10-28T09:11:09.925Z,22.72
2022-10-28T09:12:09.888Z,22.80
2022-10-28T09:13:09.836Z,23.17
2022-10-28T09:14:09.824Z,23.24
2022-10-28T09:15:09.802Z,23.88
2022-10-28T09:16:12.430Z,24.50
2022-10-28T09:17:09.690Z,24.70
2022-10-28T09:18:09.625Z,25.04
2022-10-28T09:19:09.601Z,25.25
2022-10-28T09:20:09.570Z,25.47
2022-10-28T09:21:09.553Z,25.54
2022-10-28T09:22:09.504Z,25.75
2022-10-28T09:23:09.461Z,25.69
2022-10-28T09:24:09.412Z,26.09
2022-10-28T09:25:09.390Z,26.58
2022-10-28T09:26:09.323Z,26.78
2022-10-28T09:27:09.318Z,26.95
2022-10-28T09:28:09.266Z,27.05
2022-10-28T09:29:09.194Z,27.17
2022-10-28T09:30:09.260Z,27.02
2022-10-28T09:31:09.110Z,26.99
2022-10-28T09:32:09.154Z,26.55
2022-10-28T09:33:09.056Z,26.43
2022-10-28T09:34:09.025Z,26.09
2022-10-28T09:35:08.986Z,25.90
2022-10-28T09:36:08.962Z,25.75
2022-10-28T09:37:08.908Z,25.13
2022-10-28T09:38:10.240Z,24.93
2022-10-28T09:39:08.856Z,24.86
2022-10-28T09:40:08.782Z,25.32
2022-10-28T09:41:08.730Z,26.02
2022-10-28T09:42:08.718Z,26.43
2022-10-28T09:43:08.642Z,26.96
2022-10-28T09:44:08.651Z,27.15
2022-10-28T09:45:08.586Z,27.35
2022-10-28T09:46:08.550Z,26.85
2022-10-28T09:47:08.533Z,26.36
2022-10-28T09:48:08.463Z,26.66
2022-10-28T09:49:08.421Z,26.56
2022-10-28T09:50:08.387Z,26.62
2022-10-28T09:51:08.353Z,26.83
2022-10-28T09:52:08.338Z,27.11
2022-10-28T09:53:08.263Z,27.12
2022-10-28T09:54:08.223Z,26.89
2022-10-28T09:55:08.189Z,26.77
2022-10-28T09:57:08.124Z,26.48
2022-10-28T09:58:08.100Z,26.31
2022-10-28T09:59:08.031Z,26.45
2022-10-28T10:00:08.019Z,26.31
2022-10-28T10:01:07.942Z,26.02
2022-10-28T10:02:08.051Z,25.81
2022-10-28T10:03:07.864Z,26.18
2022-10-28T10:04:07.825Z,26.43
2022-10-28T10:05:07.780Z,26.45
2022-10-28T10:06:07.741Z,26.37
2022-10-28T10:07:07.723Z,26.19
2022-10-28T10:08:07.649Z,26.44
2022-10-28T10:09:07.743Z,26.80
2022-10-28T10:10:07.608Z,26.96
2022-10-28T10:11:07.541Z,27.05
2022-10-28T10:12:07.498Z,27.00
2022-10-28T10:13:07.478Z,27.12
2022-10-28T10:14:07.422Z,27.33
2022-10-28T10:15:07.375Z,27.39
2022-10-28T10:16:07.346Z,27.22
2022-10-28T10:17:07.334Z,26.62
2022-10-28T10:18:07.259Z,26.05
2022-10-28T10:19:07.240Z,25.72
2022-10-28T10:20:07.168Z,25.72
2022-10-28T10:21:07.111Z,25.72
2022-10-28T10:22:07.091Z,25.51
2022-10-28T10:23:07.060Z,25.26
2022-10-28T10:24:07.016Z,25.25
2022-10-28T10:25:06.995Z,24.36
2022-10-28T10:26:09.683Z,23.68
2022-10-28T10:27:06.904Z,23.27
2022-10-28T10:28:06.847Z,22.88
2022-10-28T10:29:06.772Z,22.75
2022-10-28T10:30:06.773Z,22.87
2022-10-28T10:31:06.755Z,22.88
2022-10-28T10:32:06.682Z,23.02
2022-10-28T10:33:06.621Z,22.72
2022-10-28T10:34:06.603Z,22.26
2022-10-28T10:35:06.520Z,21.80
2022-10-28T10:36:06.513Z,21.54
2022-10-28T10:37:06.464Z,21.52
2022-10-28T10:38:06.385Z,21.42
2022-10-28T10:39:06.368Z,21.42
2022-10-28T10:40:06.326Z,21.35
2022-10-28T10:41:06.294Z,21.37
2022-10-28T10:42:06.257Z,21.15
2022-10-28T10:43:13.779Z,21.03
2022-10-28T10:45:06.221Z,21.20
2022-10-28T10:46:06.045Z,21.57
2022-10-28T10:47:06.536Z,21.96
2022-10-28T10:48:05.982Z,22.25
2022-10-28T10:49:05.920Z,22.43
2022-10-28T10:50:05.873Z,22.63
2022-10-28T10:51:05.848Z,22.75
2022-10-28T10:52:05.786Z,23.20
2022-10-28T10:53:05.724Z,23.27
2022-10-28T10:54:05.667Z,23.51
2022-10-28T10:55:05.638Z,23.58
2022-10-28T10:56:05.624Z,23.63
2022-10-28T10:57:05.577Z,23.61
2022-10-28T10:58:05.497Z,23.24
2022-10-28T10:59:05.459Z,23.12
2022-10-28T11:00:05.394Z,23.06
2022-10-28T11:01:05.389Z,23.03
2022-10-28T11:02:05.466Z,22.81
2022-10-28T11:03:05.311Z,22.87
2022-10-28T11:04:05.219Z,23.05
2022-10-28T11:05:05.166Z,23.17
2022-10-28T11:06:22.491Z,23.32
2022-10-28T11:07:05.104Z,23.66
2022-10-28T11:08:05.037Z,23.98
2022-10-28T11:09:05.093Z,23.69
2022-10-28T11:10:04.940Z,23.50
2022-10-28T11:11:04.927Z,23.15
2022-10-28T11:12:05.648Z,22.94
2022-10-28T11:13:04.842Z,22.66
2022-10-28T11:14:04.772Z,22.94
2022-10-28T11:15:04.764Z,23.03
2022-10-28T11:16:04.704Z,22.99
2022-10-28T11:17:04.653Z,23.13
2022-10-28T11:18:04.598Z,23.25
2022-10-28T11:19:04.595Z,23.40
2022-10-28T11:20:04.573Z,23.39
2022-10-28T11:21:04.552Z,23.21
2022-10-28T11:22:04.453Z,23.00
2022-10-28T11:23:06.233Z,23.00
2022-10-28T11:24:04.312Z,23.10
2022-10-28T11:25:04.302Z,22.98
2022-10-28T11:26:04.223Z,22.98
2022-10-28T11:27:04.217Z,22.72
2022-10-28T11:28:04.666Z,22.81
2022-10-28T11:29:04.120Z,22.78
2022-10-28T11:30:04.050Z,22.91
2022-10-28T11:31:04.047Z,22.84
2022-10-28T11:32:03.999Z,22.85
2022-10-28T11:33:28.339Z,22.90
2022-10-28T11:34:03.886Z,22.99
2022-10-28T11:35:03.836Z,23.02
2022-10-28T11:36:03.780Z,23.08
2022-10-28T11:37:03.763Z,23.02
2022-10-28T11:38:03.706Z,23.03
2022-10-28T11:39:03.688Z,23.12
2022-10-28T11:40:03.613Z,23.34
2022-10-28T11:41:03.598Z,23.43
2022-10-28T11:42:03.522Z,23.34
2022-10-28T11:43:03.476Z,23.39
2022-10-28T11:44:05.411Z,23.27
2022-10-28T11:45:03.370Z,23.27
2022-10-28T11:46:03.361Z,23.27
2022-10-28T11:47:05.273Z,23.62
2022-10-28T11:48:03.304Z,23.98
2022-10-28T11:49:03.192Z,24.02
2022-10-28T11:50:03.188Z,23.77
2022-10-28T11:51:03.125Z,23.88
2022-10-28T11:52:03.077Z,24.14
2022-10-28T11:53:03.036Z,24.24
2022-10-28T11:54:02.975Z,24.38
2022-10-28T11:55:02.928Z,24.42
2022-10-28T11:56:02.887Z,24.02
2022-10-28T11:57:02.852Z,23.69
2022-10-28T11:58:02.949Z,23.44
2022-10-28T11:59:02.777Z,23.43
2022-10-28T12:00:02.693Z,23.56
2022-10-28T12:01:02.657Z,23.54
2022-10-28T12:02:02.787Z,23.51
2022-10-28T12:03:02.928Z,23.37
2022-10-28T12:04:02.592Z,23.31
2022-10-28T12:05:02.479Z,23.31
2022-10-28T12:06:02.432Z,23.21
2022-10-28T12:07:02.392Z,23.27
2022-10-28T12:08:02.370Z,23.25
2022-10-28T12:09:02.367Z,23.27
2022-10-28T12:10:02.237Z,23.40
2022-10-28T12:11:02.207Z,23.32
2022-10-28T12:12:02.169Z,23.46
2022-10-28T12:13:02.162Z,23.37
2022-10-28T12:15:02.034Z,23.50
2022-10-28T12:16:02.041Z,23.43
2022-10-28T12:17:01.957Z,23.21
2022-10-28T12:18:02.036Z,23.13
2022-10-28T12:19:01.845Z,23.05
2022-10-28T12:20:01.896Z,22.93
2022-10-28T12:21:01.789Z,22.98
2022-10-28T12:22:02.243Z,22.94
2022-10-28T12:23:01.678Z,22.96
2022-10-28T12:24:01.602Z,22.88
2022-10-28T12:25:01.664Z,22.80
2022-10-28T12:26:01.524Z,22.88
2022-10-28T12:27:01.500Z,22.87
2022-10-28T12:28:01.501Z,22.78
2022-10-28T12:29:01.447Z,22.90
2022-10-28T12:30:01.343Z,22.99
2022-10-28T12:31:01.283Z,23.02
2022-10-28T12:32:01.266Z,22.85
2022-10-28T12:33:01.204Z,22.80
2022-10-28T12:34:01.189Z,22.78
2022-10-28T12:35:01.123Z,22.80
2022-10-28T12:36:01.060Z,22.73
2022-10-28T12:37:01.052Z,22.51
2022-10-28T12:38:00.995Z,22.69
2022-10-28T12:39:00.954Z,22.62
2022-10-28T12:40:00.900Z,22.66
2022-10-28T12:41:00.885Z,22.63
2022-10-28T12:42:00.808Z,22.63
2022-10-28T12:43:00.826Z,22.48
2022-10-28T12:44:00.740Z,22.43
2022-10-28T12:45:00.655Z,22.44
2022-10-28T12:46:00.638Z,22.41
2022-10-28T12:47:00.585Z,22.44
2022-10-28T12:48:00.666Z,22.41
2022-10-28T12:49:00.487Z,22.48
2022-10-28T12:50:00.455Z,22.55
2022-10-28T12:51:00.372Z,22.63
2022-10-28T12:52:00.365Z,22.65
2022-10-28T12:53:00.285Z,22.65
2022-10-28T12:54:00.241Z,22.68
2022-10-28T12:55:00.298Z,22.59